Time;durP1;ratioP1;P1;durP2;ratioP2;P2;SDS_P1;SDS_P2;PMS_P1;PMS_P2;Temp;Humidity;BMP_temperature;BMP_pressure;BME280_temperature;BME280_humidity;BME280_pressure;Samples;Min_cycle;Max_cycle;Signal;HPM_P1;HPM_P2
2023/12/09 00:01:59;;;;;;;0.20;0.20;;;-1.00;99.90;;;;;;4962513;28;20031;-74
2023/12/09 00:04:25;;;;;;;0.30;0.30;;;-1.00;99.90;;;;;;4945962;28;20022;-74
2023/12/09 00:06:51;;;;;;;0.20;0.20;;;-1.00;99.90;;;;;;4962032;28;20023;-74
2023/12/09 00:09:20;;;;;;;0.20;0.20;;;-1.00;99.90;;;;;;4942837;28;20655;-74
2023/12/09 00:11:47;;;;;;;0.20;0.20;;;-0.90;99.90;;;;;;4942791;28;20102;-74
2023/12/09 00:14:13;;;;;;;0.20;0.20;;;-0.90;99.90;;;;;;4958874;28;20023;-74
2023/12/09 00:16:42;;;;;;;0.20;0.20;;;-0.90;99.90;;;;;;4960152;28;20014;-74
2023/12/09 00:19:09;;;;;;;0.20;0.20;;;-0.90;99.90;;;;;;4959623;28;20019;-74
2023/12/09 00:21:35;;;;;;;0.20;0.20;;;-0.80;99.90;;;;;;4963422;28;20074;-74
2023/12/09 00:24:01;;;;;;;0.20;0.20;;;-0.70;99.90;;;;;;4945500;28;20023;-74
2023/12/09 00:26:27;;;;;;;0.23;0.23;;;-0.60;99.90;;;;;;4963088;28;20269;-74
2023/12/09 00:28:53;;;;;;;0.20;0.20;;;1.00;99.90;;;;;;4945673;28;20113;-74
2023/12/09 00:31:18;;;;;;;0.20;0.20;;;-0.50;99.90;;;;;;4963481;28;20069;-74
2023/12/09 00:33:44;;;;;;;0.20;0.20;;;-0.50;99.90;;;;;;4962389;28;20046;-74
2023/12/09 00:36:10;;;;;;;0.20;0.20;;;-0.40;99.90;;;;;;4963423;28;20023;-74
2023/12/09 00:38:36;;;;;;;0.20;0.20;;;-0.40;99.90;;;;;;4962892;28;20053;-74
2023/12/09 00:41:02;;;;;;;0.20;0.20;;;-0.30;99.90;;;;;;4963508;28;20142;-73
2023/12/09 00:43:27;;;;;;;0.20;0.20;;;-0.30;99.90;;;;;;4945384;28;20066;-74
2023/12/09 00:45:54;;;;;;;0.20;0.20;;;-0.20;99.90;;;;;;4963729;28;20054;-74
2023/12/09 00:48:22;;;;;;;0.23;0.23;;;-0.20;99.90;;;;;;4963398;28;20026;-73
2023/12/09 00:50:48;;;;;;;0.20;0.20;;;-0.30;99.90;;;;;;4965451;28;20047;-73
2023/12/09 00:53:14;;;;;;;0.27;0.27;;;-0.40;99.90;;;;;;4966593;28;20122;-74
2023/12/09 00:55:40;;;;;;;0.23;0.23;;;-0.50;99.90;;;;;;4952502;28;20021;-74
2023/12/09 00:58:06;;;;;;;2.10;2.00;;;-0.50;99.90;;;;;;4970013;28;20037;-77
2023/12/09 01:00:31;;;;;;;0.20;0.20;;;-0.50;99.90;;;;;;4971250;28;20093;-75
2023/12/09 01:02:57;;;;;;;0.20;0.20;;;-0.60;99.90;;;;;;4968730;28;20110;-74
2023/12/09 01:05:23;;;;;;;0.20;0.20;;;-0.50;99.90;;;;;;4964573;28;20343;-75
2023/12/09 01:07:49;;;;;;;0.20;0.20;;;-0.50;99.90;;;;;;4965681;28;20094;-74
2023/12/09 01:10:14;;;;;;;0.20;0.20;;;-0.60;99.90;;;;;;4969733;28;20027;-74
2023/12/09 01:12:43;;;;;;;0.20;0.20;;;-0.70;99.90;;;;;;4975246;28;20109;-74
2023/12/09 01:15:09;;;;;;;0.20;0.20;;;-0.60;99.90;;;;;;4979887;28;20053;-74
2023/12/09 01:17:36;;;;;;;0.17;0.17;;;-0.60;99.90;;;;;;4971740;28;20030;-76
2023/12/09 01:20:03;;;;;;;0.30;0.30;;;-0.70;99.90;;;;;;4952607;28;20037;-75
2023/12/09 01:22:28;;;;;;;0.20;0.20;;;-0.90;99.90;;;;;;4954977;28;20045;-73
2023/12/09 01:24:54;;;;;;;0.20;0.20;;;-0.80;99.90;;;;;;4957127;28;20039;-74
2023/12/09 01:27:20;;;;;;;0.20;0.20;;;-0.90;99.90;;;;;;4956748;28;20103;-74
2023/12/09 01:29:46;;;;;;;0.20;0.20;;;-0.90;99.90;;;;;;4964418;28;20062;-74
2023/12/09 01:32:11;;;;;;;0.20;0.20;;;-0.90;99.90;;;;;;4945496;28;20093;-74
2023/12/09 01:34:39;;;;;;;0.20;0.20;;;-0.80;99.90;;;;;;4952145;28;20109;-75
2023/12/09 01:37:06;;;;;;;0.20;0.20;;;-0.70;99.90;;;;;;4975038;28;20026;-78
2023/12/09 01:39:32;;;;;;;0.20;0.20;;;-0.70;99.90;;;;;;4976792;28;20018;-74
2023/12/09 01:41:57;;;;;;;0.70;0.70;;;-0.70;99.90;;;;;;4971288;28;20015;-74
2023/12/09 01:44:23;;;;;;;0.20;0.20;;;-0.70;99.90;;;;;;4953430;28;20030;-74
2023/12/09 01:46:49;;;;;;;0.20;0.20;;;-0.70;99.90;;;;;;4967648;28;20706;-74
2023/12/09 01:49:15;;;;;;;0.30;0.30;;;-0.60;99.90;;;;;;4963500;28;20544;-74
2023/12/09 01:51:43;;;;;;;0.20;0.20;;;-0.60;99.90;;;;;;4960324;28;20043;-73
2023/12/09 01:54:10;;;;;;;0.20;0.20;;;-0.60;99.90;;;;;;4992520;28;20050;-74
2023/12/09 01:56:37;;;;;;;0.80;0.80;;;-0.60;99.90;;;;;;4989118;28;20021;-74
2023/12/09 01:59:06;;;;;;;0.20;0.20;;;-0.60;99.90;;;;;;4981718;28;20033;-74
2023/12/09 02:01:35;;;;;;;0.20;0.20;;;-0.60;99.90;;;;;;4980743;28;20057;-73
2023/12/09 02:04:02;;;;;;;0.20;0.20;;;-0.60;99.90;;;;;;4980920;28;20019;-74
2023/12/09 02:06:28;;;;;;;0.20;0.20;;;-0.60;99.90;;;;;;4980362;28;20025;-74
2023/12/09 02:08:54;;;;;;;0.20;0.20;;;-0.60;99.90;;;;;;4980618;28;20015;-73
2023/12/09 02:11:40;;;;;;;0.30;0.30;;;-0.60;99.90;;;;;;4980366;28;20654;-73
2023/12/09 02:14:13;;;;;;;0.20;0.20;;;-0.60;99.90;;;;;;4980118;28;20740;-74
2023/12/09 02:16:43;;;;;;;0.20;0.20;;;-0.60;99.90;;;;;;4979615;28;20019;-73
2023/12/09 02:19:12;;;;;;;0.20;0.20;;;-0.40;99.90;;;;;;4962703;28;20030;-74
2023/12/09 02:22:01;;;;;;;4.47;4.37;;;-0.60;99.90;;;;;;4962872;28;20049;-73
2023/12/09 02:24:27;;;;;;;0.20;0.20;;;-0.60;99.90;;;;;;4980468;28;20010;-74
2023/12/09 02:26:56;;;;;;;0.30;0.30;;;-0.60;99.90;;;;;;4980225;28;20796;-74
2023/12/09 02:29:24;;;;;;;0.20;0.20;;;-0.60;99.90;;;;;;4980004;28;20026;-74
2023/12/09 02:31:59;;;;;;;0.20;0.20;;;-0.70;99.90;;;;;;4979510;28;20026;-74
2023/12/09 02:34:26;;;;;;;0.20;0.20;;;-0.70;99.90;;;;;;4980136;28;20033;-74
2023/12/09 02:36:52;;;;;;;0.20;0.20;;;-0.80;99.90;;;;;;4980557;28;20029;-74
2023/12/09 02:39:19;;;;;;;0.20;0.20;;;-0.80;99.90;;;;;;4980337;28;20100;-73
2023/12/09 02:41:47;;;;;;;0.20;0.20;;;-0.80;99.90;;;;;;4979697;28;20018;-73
2023/12/09 02:44:13;;;;;;;0.20;0.20;;;-0.80;99.90;;;;;;4979641;28;20026;-74
2023/12/09 02:46:39;;;;;;;0.20;0.20;;;-0.80;99.90;;;;;;4980132;28;20033;-74
2023/12/09 02:49:04;;;;;;;0.20;0.20;;;-0.80;99.90;;;;;;4962071;28;20034;-74
2023/12/09 02:51:30;;;;;;;0.20;0.20;;;-0.80;99.90;;;;;;4969040;28;20107;-74
2023/12/09 02:53:56;;;;;;;0.20;0.20;;;-0.80;99.90;;;;;;4960047;28;20728;-74
2023/12/09 02:56:22;;;;;;;0.20;0.20;;;-0.80;99.90;;;;;;4960217;28;20209;-76
2023/12/09 02:58:47;;;;;;;0.20;0.20;;;-0.80;99.90;;;;;;4959635;28;20126;-74
2023/12/09 03:01:13;;;;;;;0.20;0.20;;;-0.80;99.90;;;;;;4960745;28;20034;-74
2023/12/09 03:03:40;;;;;;;0.20;0.20;;;-0.90;99.90;;;;;;4960552;28;20684;-74
2023/12/09 03:06:06;;;;;;;0.40;0.40;;;-0.90;99.90;;;;;;4959737;28;20027;-73
2023/12/09 03:08:31;;;;;;;0.20;0.20;;;-1.00;99.90;;;;;;4959904;28;20434;-73
2023/12/09 03:10:57;;;;;;;0.20;0.20;;;-1.00;99.90;;;;;;4941837;28;20062;-74
2023/12/09 03:13:23;;;;;;;0.20;0.20;;;-1.20;99.90;;;;;;4942629;28;20038;-73
2023/12/09 03:15:49;;;;;;;0.20;0.20;;;-1.40;99.90;;;;;;4960106;28;20031;-74
2023/12/09 03:18:15;;;;;;;0.20;0.20;;;-1.60;99.90;;;;;;4959909;28;20037;-74
2023/12/09 03:20:41;;;;;;;0.20;0.20;;;-1.60;99.90;;;;;;4960578;28;20421;-73
2023/12/09 03:23:06;;;;;;;0.20;0.20;;;-1.50;99.90;;;;;;4942842;28;20070;-73
2023/12/09 03:25:32;;;;;;;0.20;0.20;;;-1.80;99.90;;;;;;4960409;28;20023;-74
2023/12/09 03:27:58;;;;;;;0.20;0.20;;;-1.80;99.90;;;;;;4960944;28;20023;-73
2023/12/09 03:30:24;;;;;;;7.07;6.80;;;-1.80;99.90;;;;;;4960117;28;20019;-74
2023/12/09 03:32:49;;;;;;;0.20;0.20;;;-1.20;99.90;;;;;;4960306;28;20031;-74
2023/12/09 03:35:16;;;;;;;0.27;0.27;;;-1.70;99.90;;;;;;4942517;28;20023;-74
2023/12/09 03:37:41;;;;;;;0.30;0.30;;;-1.70;99.90;;;;;;4960198;28;20035;-74
2023/12/09 03:40:10;;;;;;;0.30;0.30;;;-1.60;99.90;;;;;;4960013;28;20688;-73
2023/12/09 03:42:35;;;;;;;0.20;0.20;;;-1.60;99.90;;;;;;4960446;28;20764;-74
2023/12/09 03:45:01;;;;;;;0.20;0.20;;;-1.70;99.90;;;;;;4967599;28;20023;-74
2023/12/09 03:47:27;;;;;;;0.20;0.20;;;-1.80;99.90;;;;;;4969767;28;20093;-75
2023/12/09 03:49:53;;;;;;;0.20;0.20;;;-1.80;99.90;;;;;;4965111;28;20449;-74
2023/12/09 03:52:18;;;;;;;0.20;0.20;;;-1.90;99.90;;;;;;4966901;28;20050;-74
2023/12/09 03:54:44;;;;;;;0.20;0.20;;;-1.70;99.90;;;;;;4970186;28;20639;-74
2023/12/09 03:57:12;;;;;;;0.20;0.20;;;-1.90;99.90;;;;;;4964122;28;20045;-75
2023/12/09 03:59:41;;;;;;;0.20;0.20;;;-1.90;99.90;;;;;;4963217;28;20110;-74
2023/12/09 04:02:07;;;;;;;4.30;3.90;;;-1.80;99.90;;;;;;4963459;28;20023;-74
2023/12/09 04:04:41;;;;;;;0.20;0.20;;;-0.10;99.90;;;;;;4946007;28;20600;-74
2023/12/09 04:07:07;;;;;;;0.40;0.40;;;-1.90;99.90;;;;;;4964192;28;20018;-73
2023/12/09 04:09:32;;;;;;;0.20;0.20;;;-1.90;99.90;;;;;;4963830;28;20142;-74
2023/12/09 04:11:58;;;;;;;0.20;0.20;;;-1.80;99.90;;;;;;4963611;28;20693;-74
2023/12/09 04:14:25;;;;;;;0.20;0.20;;;-1.70;99.90;;;;;;4945377;28;20034;-73
2023/12/09 04:16:50;;;;;;;0.20;0.20;;;-1.70;99.90;;;;;;4962903;28;20039;-76
2023/12/09 04:19:16;;;;;;;0.20;0.20;;;-1.60;99.90;;;;;;4971515;28;20057;-74
2023/12/09 04:21:42;;;;;;;0.20;0.20;;;-1.70;99.90;;;;;;4973217;28;20023;-74
2023/12/09 04:24:08;;;;;;;0.20;0.20;;;-1.70;99.90;;;;;;4955459;28;20567;-75
2023/12/09 04:26:34;;;;;;;0.20;0.20;;;-1.80;99.90;;;;;;4972272;28;20027;-74
2023/12/09 04:29:06;;;;;;;0.30;0.30;;;-1.40;99.90;;;;;;4972885;28;20030;-77
2023/12/09 04:31:32;;;;;;;0.20;0.20;;;0.10;99.90;;;;;;4975012;28;20026;-75
2023/12/09 04:33:58;;;;;;;0.20;0.20;;;-1.90;99.90;;;;;;4974907;28;20026;-81
2023/12/09 04:36:24;;;;;;;0.20;0.20;;;-2.00;99.90;;;;;;4967829;28;20029;-75
2023/12/09 04:38:49;;;;;;;0.20;0.20;;;-2.10;99.90;;;;;;4966556;28;20037;-73
2023/12/09 04:41:15;;;;;;;0.50;0.50;;;-2.10;99.90;;;;;;4971694;28;20028;-76
2023/12/09 04:43:41;;;;;;;0.20;0.20;;;-2.20;99.90;;;;;;4955363;28;20039;-80
2023/12/09 04:46:07;;;;;;;0.20;0.20;;;-2.10;99.90;;;;;;4965851;28;20019;-74
2023/12/09 04:48:33;;;;;;;12.27;11.73;;;-2.00;99.90;;;;;;4962935;28;20023;-75
2023/12/09 04:50:59;;;;;;;0.20;0.20;;;-2.00;99.90;;;;;;4964738;28;20098;-74
2023/12/09 04:53:24;;;;;;;0.20;0.20;;;-2.30;99.90;;;;;;4963147;28;20037;-73
2023/12/09 04:55:50;;;;;;;0.20;0.20;;;-2.30;99.90;;;;;;4962778;28;20082;-73
2023/12/09 04:58:16;;;;;;;0.30;0.30;;;-2.20;99.90;;;;;;4963547;28;20050;-74
2023/12/09 05:00:42;;;;;;;0.53;0.53;;;-2.20;99.90;;;;;;4953182;28;20030;-76
2023/12/09 05:03:07;;;;;;;0.20;0.20;;;-2.30;99.90;;;;;;4969396;28;20517;-75
2023/12/09 05:05:33;;;;;;;0.20;0.20;;;-2.40;99.90;;;;;;4968234;28;20031;-75
2023/12/09 05:07:59;;;;;;;0.20;0.20;;;-2.40;99.90;;;;;;4963002;28;20046;-73
2023/12/09 05:10:25;;;;;;;0.20;0.20;;;-2.40;99.90;;;;;;4944217;28;20073;-74
2023/12/09 05:12:50;;;;;;;0.20;0.20;;;-2.50;99.90;;;;;;4963848;28;20023;-74
2023/12/09 05:15:16;;;;;;;0.20;0.20;;;-2.60;99.90;;;;;;4948711;28;20027;-77
2023/12/09 05:17:42;;;;;;;0.20;0.20;;;-2.60;99.90;;;;;;4968894;28;20035;-75
2023/12/09 05:20:09;;;;;;;0.20;0.20;;;-2.70;99.90;;;;;;4948875;28;20358;-74
2023/12/09 05:22:35;;;;;;;0.20;0.20;;;-2.80;99.90;;;;;;4962280;28;20019;-73
2023/12/09 05:25:02;;;;;;;0.37;0.37;;;-2.70;99.90;;;;;;4962116;28;20019;-73
2023/12/09 05:27:28;;;;;;;0.30;0.30;;;-2.70;99.90;;;;;;4945030;28;20568;-73
2023/12/09 05:29:53;;;;;;;0.37;0.37;;;-0.80;99.90;;;;;;4944056;28;20031;-74
2023/12/09 05:32:19;;;;;;;0.20;0.20;;;-2.80;99.90;;;;;;4962011;28;20026;-74
2023/12/09 05:34:45;;;;;;;0.20;0.20;;;-2.90;99.90;;;;;;4944442;28;20671;-74
2023/12/09 05:37:11;;;;;;;0.20;0.20;;;-2.80;99.90;;;;;;4961529;28;20030;-74
2023/12/09 05:39:38;;;;;;;0.20;0.20;;;-2.90;99.90;;;;;;4961559;28;20031;-74
2023/12/09 05:42:04;;;;;;;0.20;0.20;;;-2.80;99.90;;;;;;4962019;28;20019;-74
2023/12/09 05:44:30;;;;;;;0.20;0.20;;;-2.90;99.90;;;;;;4961686;28;20023;-73
2023/12/09 05:46:56;;;;;;;0.20;0.20;;;-2.90;99.90;;;;;;4961396;28;20717;-73
2023/12/09 05:49:22;;;;;;;0.20;0.20;;;-2.90;99.90;;;;;;4961002;28;20015;-73
2023/12/09 05:51:49;;;;;;;0.20;0.20;;;-2.80;99.90;;;;;;4944236;28;20252;-74
2023/12/09 05:54:15;;;;;;;0.20;0.20;;;-2.80;99.90;;;;;;4961878;28;20093;-74
2023/12/09 05:56:51;;;;;;;0.20;0.20;;;-2.90;99.90;;;;;;4963184;28;20110;-74
2023/12/09 05:59:17;;;;;;;0.20;0.20;;;-2.90;99.90;;;;;;4950433;28;20033;-74
2023/12/09 06:01:43;;;;;;;0.20;0.20;;;-2.80;99.90;;;;;;4968313;28;20035;-74
2023/12/09 06:04:09;;;;;;;0.20;0.20;;;-2.80;99.90;;;;;;4968288;28;20023;-74
2023/12/09 06:06:34;;;;;;;0.20;0.20;;;-2.80;99.90;;;;;;4964233;28;20018;-76
2023/12/09 06:09:04;;;;;;;0.20;0.20;;;-2.70;99.90;;;;;;4966429;28;20023;-77
2023/12/09 06:11:31;;;;;;;0.20;0.20;;;-2.70;99.90;;;;;;4967247;28;20022;-75
2023/12/09 06:13:56;;;;;;;0.20;0.20;;;-2.80;99.90;;;;;;4963602;28;20216;-73
2023/12/09 06:16:23;;;;;;;0.20;0.20;;;-2.80;99.90;;;;;;4942253;28;20493;-72
2023/12/09 06:18:49;;;;;;;0.20;0.20;;;-2.70;99.90;;;;;;4960390;28;20731;-74
2023/12/09 06:21:22;;;;;;;0.30;0.30;;;-2.60;99.90;;;;;;4960560;28;20027;-73
2023/12/09 06:23:48;;;;;;;0.20;0.20;;;-2.50;99.90;;;;;;4960868;28;20023;-73
2023/12/09 06:26:14;;;;;;;0.20;0.20;;;-2.50;99.90;;;;;;4960620;28;20061;-73
2023/12/09 06:28:40;;;;;;;1.13;1.13;;;-2.50;99.90;;;;;;4960830;28;20054;-74
2023/12/09 06:31:06;;;;;;;0.20;0.20;;;-2.50;99.90;;;;;;4960534;28;20035;-74
2023/12/09 06:33:32;;;;;;;0.30;0.30;;;-2.50;99.90;;;;;;4961365;28;20634;-73
2023/12/09 06:35:57;;;;;;;0.87;0.87;;;-2.60;99.90;;;;;;4960589;28;20102;-75
2023/12/09 06:38:23;;;;;;;0.20;0.20;;;-2.70;99.90;;;;;;4960180;28;20038;-74
2023/12/09 06:40:49;;;;;;;0.20;0.20;;;-2.60;99.90;;;;;;4960834;28;20265;-74
2023/12/09 06:43:15;;;;;;;0.20;0.20;;;-2.60;99.90;;;;;;4961607;28;20110;-75
2023/12/09 06:45:41;;;;;;;0.20;0.20;;;-2.50;99.90;;;;;;4960268;28;20015;-75
2023/12/09 06:48:07;;;;;;;0.30;0.30;;;-2.60;99.90;;;;;;4960852;28;20078;-74
2023/12/09 06:50:32;;;;;;;0.20;0.20;;;-2.60;99.90;;;;;;4959630;28;20035;-74
2023/12/09 06:53:00;;;;;;;0.20;0.20;;;-2.60;99.90;;;;;;4959832;28;20050;-74
2023/12/09 06:55:27;;;;;;;0.17;0.17;;;-2.60;99.90;;;;;;4959718;28;20026;-74
2023/12/09 06:57:56;;;;;;;0.20;0.20;;;-2.50;99.90;;;;;;4959935;28;20035;-76
2023/12/09 07:00:22;;;;;;;0.20;0.20;;;-2.50;99.90;;;;;;4942337;28;20668;-74
2023/12/09 07:02:48;;;;;;;0.20;0.20;;;-2.40;99.90;;;;;;4942869;28;20034;-74
2023/12/09 07:05:14;;;;;;;0.20;0.20;;;-2.40;99.90;;;;;;4960427;28;20033;-75
2023/12/09 07:07:42;;;;;;;0.20;0.20;;;-2.40;99.90;;;;;;4960092;28;20038;-73
2023/12/09 07:10:09;;;;;;;0.20;0.20;;;-2.30;99.90;;;;;;4959748;28;20030;-74
2023/12/09 07:12:35;;;;;;;0.20;0.20;;;-2.20;99.90;;;;;;4941489;28;20552;-74
2023/12/09 07:15:05;;;;;;;0.20;0.20;;;-2.20;99.90;;;;;;4960367;28;20014;-73
2023/12/09 07:17:33;;;;;;;0.20;0.20;;;-2.00;99.90;;;;;;4959667;28;20754;-74
2023/12/09 07:19:59;;;;;;;0.20;0.20;;;-2.00;99.90;;;;;;4959821;28;20026;-75
2023/12/09 07:22:25;;;;;;;0.20;0.20;;;-1.90;99.90;;;;;;4960238;28;20019;-74
2023/12/09 07:24:51;;;;;;;0.20;0.20;;;-1.90;99.90;;;;;;4960452;28;20022;-74
2023/12/09 07:27:17;;;;;;;0.20;0.20;;;-2.00;99.90;;;;;;4960010;28;20027;-74
2023/12/09 07:29:44;;;;;;;0.30;0.30;;;-2.00;99.90;;;;;;4959635;28;20031;-73
2023/12/09 07:32:09;;;;;;;0.20;0.20;;;-1.80;99.90;;;;;;4960305;28;20010;-74
2023/12/09 07:34:35;;;;;;;0.20;0.20;;;-1.70;99.90;;;;;;4960889;28;20031;-74
2023/12/09 07:37:01;;;;;;;0.20;0.20;;;-1.70;99.90;;;;;;4960352;28;20273;-74
2023/12/09 07:39:27;;;;;;;0.20;0.20;;;-1.60;99.90;;;;;;4960679;28;20034;-76
2023/12/09 07:41:53;;;;;;;0.20;0.20;;;-1.60;99.90;;;;;;4942354;28;20065;-73
2023/12/09 07:44:20;;;;;;;0.20;0.20;;;-1.50;99.90;;;;;;4941295;28;20027;-74
2023/12/09 07:46:47;;;;;;;0.20;0.20;;;-1.40;99.90;;;;;;4923722;29;20030;-75
2023/12/09 07:49:15;;;;;;;0.10;0.10;;;-1.50;99.90;;;;;;4941145;29;20294;-75
2023/12/09 07:51:41;;;;;;;0.20;0.20;;;-1.40;99.90;;;;;;4951223;28;20545;-74
2023/12/09 07:54:07;;;;;;;0.20;0.20;;;-1.40;99.90;;;;;;4949966;28;20045;-74
2023/12/09 07:56:33;;;;;;;0.20;0.20;;;-1.30;99.90;;;;;;4950149;28;20126;-74
2023/12/09 07:58:58;;;;;;;0.20;0.20;;;-1.30;99.90;;;;;;4968068;28;20093;-74
2023/12/09 08:01:26;;;;;;;2.13;2.07;;;-1.10;99.90;;;;;;4950797;28;20039;-74
2023/12/09 08:03:52;;;;;;;0.20;0.20;;;-1.00;99.90;;;;;;4965215;28;20094;-74
2023/12/09 08:06:17;;;;;;;0.20;0.20;;;-0.90;99.90;;;;;;4963677;28;20162;-76
2023/12/09 08:08:43;;;;;;;0.20;0.20;;;-0.70;99.90;;;;;;4952287;28;20035;-73
2023/12/09 08:11:09;;;;;;;0.13;0.13;;;-0.60;99.90;;;;;;4954461;28;20023;-76
2023/12/09 08:13:35;;;;;;;0.10;0.10;;;-0.40;99.90;;;;;;4969780;28;20050;-75
2023/12/09 08:16:05;;;;;;;0.20;0.20;;;-0.30;99.90;;;;;;4950537;28;20030;-77
2023/12/09 08:18:31;;;;;;;0.17;0.17;;;-0.30;99.90;;;;;;4968729;28;20035;-74
2023/12/09 08:20:56;;;;;;;0.20;0.20;;;-0.10;99.90;;;;;;4968465;28;20081;-74
2023/12/09 08:23:22;;;;;;;0.10;0.10;;;0.00;99.90;;;;;;4969034;28;20023;-73
2023/12/09 08:25:49;;;;;;;0.20;0.20;;;0.20;99.90;;;;;;4967896;28;20027;-74
2023/12/09 08:28:15;;;;;;;0.10;0.10;;;0.30;99.90;;;;;;4949775;28;20631;-74
2023/12/09 08:30:42;;;;;;;1.83;1.67;;;0.50;99.90;;;;;;4946012;28;20120;-75
2023/12/09 08:33:08;;;;;;;0.20;0.20;;;0.60;99.90;;;;;;4967690;28;20030;-76
2023/12/09 08:35:34;;;;;;;0.20;0.20;;;0.80;99.90;;;;;;4953144;28;20551;-73
2023/12/09 08:38:09;;;;;;;0.20;0.20;;;0.90;99.90;;;;;;4964679;28;20094;-77
2023/12/09 08:40:34;;;;;;;4.03;3.10;;;1.00;99.90;;;;;;4963385;28;20102;-75
2023/12/09 08:43:00;;;;;;;0.15;0.15;;;0.90;99.90;;;;;;4965068;28;20113;-74
2023/12/09 08:45:26;;;;;;;0.82;0.82;;;0.70;99.90;;;;;;4963365;28;20031;-76
2023/12/09 08:47:52;;;;;;;3.70;3.60;;;0.70;99.90;;;;;;4963164;28;20027;-75
2023/12/09 08:50:18;;;;;;;0.20;0.20;;;0.60;99.90;;;;;;4964365;28;20077;-75
2023/12/09 08:52:44;;;;;;;4.82;4.68;;;0.70;99.90;;;;;;4973981;28;20058;-75
2023/12/09 08:55:10;;;;;;;0.10;0.10;;;0.80;99.90;;;;;;4972596;28;20025;-75
2023/12/09 08:57:39;;;;;;;10.07;9.73;;;0.80;99.90;;;;;;4968829;28;20796;-75
2023/12/09 09:00:08;;;;;;;0.43;0.43;;;0.70;99.90;;;;;;4950665;28;20121;-75
2023/12/09 09:02:34;;;;;;;2.38;0.90;;;0.80;99.90;;;;;;4975757;28;20090;-75
2023/12/09 09:05:03;;;;;;;0.10;0.10;;;0.90;99.90;;;;;;4975440;28;20023;-76
2023/12/09 09:07:29;;;;;;;1.17;1.17;;;0.90;99.90;;;;;;4948332;28;20047;-75
2023/12/09 09:09:55;;;;;;;0.10;0.10;;;0.70;99.90;;;;;;4948122;28;20039;-74
2023/12/09 09:12:24;;;;;;;0.10;0.10;;;0.80;99.90;;;;;;4948972;28;20538;-75
2023/12/09 09:14:50;;;;;;;0.10;0.10;;;0.90;99.90;;;;;;4966741;28;20019;-74
2023/12/09 09:17:16;;;;;;;0.20;0.20;;;1.00;99.90;;;;;;4964148;28;20038;-75
2023/12/09 09:19:43;;;;;;;0.55;0.55;;;1.30;99.90;;;;;;4970461;28;20030;-75
2023/12/09 09:22:08;;;;;;;25.73;24.08;;;1.30;99.90;;;;;;4953121;28;20654;-77
2023/12/09 09:24:36;;;;;;;0.40;0.40;;;1.60;99.90;;;;;;4969459;28;20046;-75
2023/12/09 09:27:02;;;;;;;0.22;0.22;;;1.70;99.90;;;;;;4967457;28;20031;-75
2023/12/09 09:29:31;;;;;;;1.27;1.27;;;1.80;99.90;;;;;;4950436;28;20031;-74
2023/12/09 09:31:57;;;;;;;0.13;0.13;;;1.90;99.90;;;;;;4973616;28;20034;-75
2023/12/09 09:34:23;;;;;;;0.10;0.10;;;2.00;99.90;;;;;;4950895;28;20331;-74
2023/12/09 09:36:49;;;;;;;1.92;1.88;;;2.10;99.90;;;;;;4952374;28;20039;-74
2023/12/09 09:39:15;;;;;;;0.20;0.20;;;2.30;99.90;;;;;;4970795;28;20026;-76
2023/12/09 09:42:00;;;;;;;12.13;11.60;;;2.20;99.90;;;;;;4969843;28;20247;-75
2023/12/09 09:44:27;;;;;;;3.47;3.38;;;2.50;99.90;;;;;;4970498;28;20058;-75
2023/12/09 09:46:57;;;;;;;0.10;0.10;;;2.50;99.90;;;;;;4967254;28;20098;-74
2023/12/09 09:49:25;;;;;;;8.38;7.68;;;2.60;99.90;;;;;;4963338;28;20031;-75
2023/12/09 09:51:56;;;;;;;0.43;0.40;;;2.50;99.90;;;;;;4964109;28;20679;-74
2023/12/09 09:54:26;;;;;;;0.50;0.50;;;2.50;99.90;;;;;;4968310;28;20031;-75
2023/12/09 09:56:54;;;;;;;50.30;46.47;;;2.60;99.90;;;;;;4972303;28;20019;-74
2023/12/09 09:59:22;;;;;;;28.48;26.05;;;2.70;99.90;;;;;;4966617;28;20038;-75
2023/12/09 10:01:48;;;;;;;1.45;1.40;;;2.70;99.90;;;;;;4962805;28;20110;-74
2023/12/09 10:04:13;;;;;;;0.10;0.10;;;2.70;99.90;;;;;;4962600;28;20106;-74
2023/12/09 10:06:43;;;;;;;7.97;7.68;;;2.70;99.90;;;;;;4944678;28;20027;-75
2023/12/09 10:09:11;;;;;;;0.10;0.10;;;2.20;99.90;;;;;;4961217;28;20722;-74
2023/12/09 10:11:40;;;;;;;5.55;5.35;;;2.30;99.90;;;;;;4961065;28;20047;-74
2023/12/09 10:14:05;;;;;;;1.90;1.85;;;2.20;99.90;;;;;;4960777;28;20031;-74
2023/12/09 10:16:33;;;;;;;0.00;0.00;;;2.40;99.90;;;;;;4961401;28;20037;-74
2023/12/09 10:19:00;;;;;;;0.22;0.22;;;2.30;99.90;;;;;;4961085;28;20031;-74
2023/12/09 10:21:25;;;;;;;15.90;15.10;;;2.30;99.90;;;;;;4961344;28;20027;-74
2023/12/09 10:23:51;;;;;;;0.20;0.20;;;2.30;99.90;;;;;;4943906;28;20034;-74
2023/12/09 10:26:18;;;;;;;5.40;5.20;;;2.30;99.90;;;;;;4943657;28;20031;-74
2023/12/09 10:28:44;;;;;;;33.25;30.70;;;2.10;99.90;;;;;;4943558;28;20023;-73
2023/12/09 10:31:12;;;;;;;4.45;4.25;;;2.20;99.90;;;;;;4943832;28;20542;-74
2023/12/09 10:33:37;;;;;;;1.13;1.13;;;2.30;99.90;;;;;;4961086;28;20575;-74
2023/12/09 10:36:06;;;;;;;0.52;0.52;;;2.30;99.90;;;;;;4944303;28;20023;-74
2023/12/09 10:38:32;;;;;;;0.20;0.20;;;2.20;99.90;;;;;;4960506;28;20578;-74
2023/12/09 10:40:58;;;;;;;0.95;0.95;;;2.20;99.90;;;;;;4960909;28;20093;-74
2023/12/09 10:43:24;;;;;;;1.55;1.55;;;2.10;99.90;;;;;;4943502;28;20285;-74
2023/12/09 10:45:49;;;;;;;9.48;8.95;;;2.40;99.90;;;;;;4942495;28;20035;-74
2023/12/09 10:48:15;;;;;;;33.30;30.23;;;2.60;99.90;;;;;;4960820;28;20102;-74
2023/12/09 10:50:46;;;;;;;0.10;0.10;;;2.60;99.90;;;;;;4942745;28;20027;-74
2023/12/09 10:53:12;;;;;;;0.10;0.10;;;2.80;99.90;;;;;;4960622;28;20022;-74
2023/12/09 10:55:39;;;;;;;29.58;12.77;;;2.90;99.90;;;;;;4943841;28;20027;-75
2023/12/09 10:58:05;;;;;;;1.00;1.00;;;2.90;99.90;;;;;;4961619;28;20027;-74
2023/12/09 11:00:32;;;;;;;0.10;0.10;;;2.80;99.90;;;;;;4963529;28;20166;-74
2023/12/09 11:02:59;;;;;;;16.42;12.68;;;2.90;99.90;;;;;;4963425;28;20477;-74
2023/12/09 11:05:25;;;;;;;0.03;0.03;;;3.00;99.90;;;;;;4946285;28;20257;-75
2023/12/09 11:08:00;;;;;;;12.07;11.60;;;3.10;99.90;;;;;;4964182;28;20065;-80
2023/12/09 11:10:26;;;;;;;0.82;0.82;;;3.00;99.90;;;;;;4965757;28;20027;-75
2023/12/09 11:12:51;;;;;;;26.05;24.00;;;2.90;99.90;;;;;;4966628;28;20099;-75
2023/12/09 11:15:28;;;;;;;0.30;0.30;;;2.80;99.90;;;;;;4961826;28;20030;-76
2023/12/09 11:17:54;;;;;;;0.20;0.20;;;2.80;99.90;;;;;;4966754;28;20035;-76
2023/12/09 11:20:20;;;;;;;3.50;3.30;;;2.70;99.90;;;;;;4962125;28;20050;-75
2023/12/09 11:22:47;;;;;;;2.20;2.15;;;2.80;99.90;;;;;;4945501;28;20062;-76
2023/12/09 11:25:19;;;;;;;1.08;1.08;;;2.80;99.90;;;;;;4960803;28;20046;-75
2023/12/09 11:27:48;;;;;;;6.38;6.00;;;2.90;99.90;;;;;;4960097;28;20023;-76
2023/12/09 11:30:44;;;;;;;6.82;6.50;;;2.90;99.90;;;;;;4960516;28;20030;-75
2023/12/09 11:33:10;;;;;;;0.10;0.10;;;3.40;99.90;;;;;;4961432;28;20674;-74
2023/12/09 11:35:43;;;;;;;0.10;0.10;;;3.00;99.90;;;;;;4970042;28;20014;-74
2023/12/09 11:38:10;;;;;;;4.03;2.65;;;3.10;99.90;;;;;;4969083;28;20043;-75
2023/12/09 11:40:36;;;;;;;2.92;2.72;;;3.10;99.90;;;;;;4969261;28;20011;-75
2023/12/09 11:43:09;;;;;;;0.10;0.10;;;3.20;99.90;;;;;;4964753;28;20145;-75
2023/12/09 11:45:37;;;;;;;0.65;0.65;;;3.40;99.90;;;;;;4963944;28;20031;-75
2023/12/09 11:48:05;;;;;;;0.10;0.10;;;3.50;99.90;;;;;;4963985;28;20073;-76
2023/12/09 11:50:30;;;;;;;0.10;0.10;;;3.70;99.90;;;;;;4975724;28;20007;-76
2023/12/09 11:52:56;;;;;;;0.50;0.50;;;3.80;99.90;;;;;;4972223;28;20125;-75
2023/12/09 11:55:22;;;;;;;13.48;7.55;;;3.90;99.90;;;;;;4966256;28;20561;-76
2023/12/09 11:57:48;;;;;;;0.10;0.10;;;4.00;99.90;;;;;;4962163;28;20039;-75
2023/12/09 12:00:14;;;;;;;0.40;0.40;;;3.90;99.90;;;;;;4961335;28;20027;-75
2023/12/09 12:02:48;;;;;;;0.50;0.50;;;3.90;99.90;;;;;;4944971;28;20031;-75
2023/12/09 12:05:14;;;;;;;8.18;7.75;;;3.80;99.90;;;;;;4965218;28;20031;-75
2023/12/09 12:07:40;;;;;;;0.10;0.10;;;3.80;99.90;;;;;;4964722;28;20029;-75
2023/12/09 12:10:07;;;;;;;0.10;0.10;;;4.00;99.90;;;;;;4964440;28;20010;-75
2023/12/09 12:12:33;;;;;;;0.75;0.75;;;4.00;99.90;;;;;;4944334;28;20078;-74
2023/12/09 12:15:00;;;;;;;0.13;0.13;;;3.90;99.90;;;;;;4946181;28;20027;-77
2023/12/09 12:17:28;;;;;;;0.50;0.50;;;3.90;99.90;;;;;;4948043;28;20759;-75
2023/12/09 12:19:55;;;;;;;0.10;0.10;;;3.90;99.90;;;;;;4965755;28;20167;-75
2023/12/09 12:22:21;;;;;;;0.10;0.10;;;3.90;99.90;;;;;;4965160;28;20035;-75
2023/12/09 12:24:48;;;;;;;0.10;0.10;;;3.80;99.90;;;;;;4971083;28;20023;-75
2023/12/09 12:27:14;;;;;;;0.63;0.63;;;3.80;99.90;;;;;;4955621;28;20046;-75
2023/12/09 12:29:41;;;;;;;1.17;1.13;;;3.80;99.90;;;;;;4973871;28;20031;-76
2023/12/09 12:32:19;;;;;;;4.25;4.13;;;3.80;99.90;;;;;;4973350;28;20082;-76
2023/12/09 12:34:45;;;;;;;0.10;0.10;;;3.90;99.90;;;;;;4967867;28;20030;-76
2023/12/09 12:37:11;;;;;;;15.35;14.70;;;3.90;99.90;;;;;;4969719;28;20059;-75
2023/12/09 12:39:40;;;;;;;76.25;72.65;;;4.00;99.90;;;;;;4974602;28;20433;-75
2023/12/09 12:42:06;;;;;;;0.10;0.10;;;4.00;99.90;;;;;;4952013;28;20563;-75
2023/12/09 12:44:32;;;;;;;1.35;1.30;;;4.00;99.90;;;;;;4965795;28;20110;-75
2023/12/09 12:46:58;;;;;;;0.20;0.20;;;4.00;99.90;;;;;;4931737;28;20161;-74
2023/12/09 12:49:25;;;;;;;0.20;0.20;;;4.00;99.90;;;;;;4964709;28;20034;-76